Terminal Aerodrome Forecast
Issued by NWS

Home | Current Version | Previous Version | Text Only | Print | Product List | Glossary On
Versions: 1 2 3 4 5 6 7 8 9 10 11 12 13 14 15 16 17 18 19 20 21 22 23 24 25 26 27 28 29 30
759
FTUS41 KBUF 250520
TAFJHW
TAF
KJHW 250520Z 2506/2606 18011G20KT P6SM SCT080 OVC200
     FM250900 18012G22KT P6SM -SHRA OVC060
     FM251100 18013G25KT 3SM SHRA VCTS OVC025CB
     FM251300 24014G23KT P6SM -SHRA OVC007
     FM251600 25013G23KT P6SM OVC007
     FM251900 25018G30KT P6SM SCT015 OVC200
     FM260000 25015G25KT 4SM -SHSN OVC025
      AMD LTD TO VIS AND WIND=

USA.gov is the U.S. government's official web portal to all federal, state and local government web resources and services.